Temp: 3.7°C   Baro: 1036.4mb
  Wind: 2.0mph   Dir: W (273°)
  Rain: 0.0mm (0.0mm/hr)
  Solar: 0W/m2  Hum: 84%

Historic data

Bath Spa Weather Station Historical Data
Daily Summary for December 21, 2019 Units:  Both    English   Metric
Daily Weekly Monthly Yearly Custom
  High: Low: Average:
Temperature: 50.7 °F /  10.4 °C 43.9 °F /  6.6 °C 46.7 °F /  8.2 °C
Dew Point: 46.4 °F /  8 °C 41.9 °F /  5.5 °C 44 °F /  6.7 °C
Humidity: 94% 82.4% 91%
Wind Speed: 12mph /  19.3km/h - 3.6mph /  5.8km/h
Wind Gust: 19mph /  30.6km/h - -
Wind- - SSE
Pressure: 29.00 in /  981.9 hPa 28.61 in /  968.7 hPa -
Precipitation: 0.17 in /  4.32 mm    
Historical Graphs
 
 
Tabular Data for December 21, 2019
Time Temperature Dew Point Pressure Wind Wind Speed Wind Gust Humidity Rainfall Rate (Hourly) solar
00:09 45 °F /  7.2 °C 42.8 °F /  6 °C 29.00in /  981.9hPa Calm   3mph /  4.8km/h 92% 0.00in /  0mm 0 W/m2
00:14 45 °F /  7.2 °C 42.7 °F /  5.9 °C 29.00in /  981.9hPa SSE 0.4mph /  0.6km/h 2mph /  3.2km/h 91.8% 0.00in /  0mm 0 W/m2
00:19 44.8 °F /  7.1 °C 42.4 °F /  5.8 °C 29.00in /  981.9hPa Calm   1mph /  1.6km/h 91.3% 0.00in /  0mm 0 W/m2
00:24 44.8 °F /  7.1 °C 42.3 °F /  5.7 °C 28.99in /  981.6hPa SE 2.2mph /  3.5km/h 5mph /  8km/h 91% 0.00in /  0mm 0 W/m2
00:29 44.8 °F /  7.1 °C 42.3 °F /  5.7 °C 28.99in /  981.6hPa ESE 2mph /  3.2km/h 5mph /  8km/h 91% 0.00in /  0mm 0 W/m2
00:34 44.8 °F /  7.1 °C 42.3 °F /  5.7 °C 28.99in /  981.6hPa SSE 0.5mph /  0.8km/h 3mph /  4.8km/h 91% 0.00in /  0mm 0 W/m2
00:39 44.8 °F /  7.1 °C 42.3 °F /  5.7 °C 28.99in /  981.6hPa SSE 1.2mph /  1.9km/h 4mph /  6.4km/h 91% 0.00in /  0mm 0 W/m2
00:44 44.9 °F /  7.2 °C 42.6 °F /  5.9 °C 28.99in /  981.6hPa SSE 1.7mph /  2.7km/h 4mph /  6.4km/h 91.8% 0.00in /  0mm 0 W/m2
00:49 45 °F /  7.2 °C 42.8 °F /  6 °C 28.99in /  981.6hPa SSE 4.2mph /  6.8km/h 6mph /  9.7km/h 92% 0.00in /  0mm 0 W/m2
00:54 45 °F /  7.2 °C 42.8 °F /  6 °C 28.99in /  981.6hPa South 4.3mph /  6.9km/h 7mph /  11.3km/h 92% 0.00in /  0mm 0 W/m2
00:59 44.9 °F /  7.2 °C 42.7 °F /  5.9 °C 28.99in /  981.6hPa South 2.9mph /  4.7km/h 6mph /  9.7km/h 92% 0.00in /  0mm 0 W/m2
01:04 44.8 °F /  7.1 °C 42.6 °F /  5.9 °C 28.98in /  981.3hPa South 3.2mph /  5.1km/h 6mph /  9.7km/h 92% 0.00in /  0mm 0 W/m2
01:09 44.8 °F /  7.1 °C 42.6 °F /  5.9 °C 28.98in /  981.3hPa SSE 3.7mph /  6km/h 8mph /  12.9km/h 92% 0.00in /  0mm 0 W/m2
01:14 45 °F /  7.2 °C 42.8 °F /  6 °C 28.98in /  981.3hPa South 3.6mph /  5.8km/h 8mph /  12.9km/h 92% 0.00in /  0mm 0 W/m2
01:19 45 °F /  7.2 °C 42.8 °F /  6 °C 28.98in /  981.3hPa South 2.4mph /  3.9km/h 6mph /  9.7km/h 92% 0.00in /  0mm 0 W/m2
01:24 45 °F /  7.2 °C 42.8 °F /  6 °C 28.98in /  981.3hPa South 3.2mph /  5.1km/h 7mph /  11.3km/h 92% 0.00in /  0mm 0 W/m2
01:29 45 °F /  7.2 °C 42.8 °F /  6 °C 28.98in /  981.3hPa SSE 3.2mph /  5.1km/h 6mph /  9.7km/h 92% 0.00in /  0mm 0 W/m2
01:34 45 °F /  7.2 °C 42.8 °F /  6 °C 28.98in /  981.3hPa South 3.8mph /  6.1km/h 7mph /  11.3km/h 92% 0.00in /  0mm 0 W/m2
01:39 45 °F /  7.2 °C 42.8 °F /  6 °C 28.98in /  981.3hPa South 2.8mph /  4.5km/h 6mph /  9.7km/h 92% 0.00in /  0mm 0 W/m2
01:44 45 °F /  7.2 °C 42.8 °F /  6 °C 28.98in /  981.3hPa SSE 2.1mph /  3.4km/h 4mph /  6.4km/h 92% 0.00in /  0mm 0 W/m2
01:49 44.8 °F /  7.1 °C 42.8 °F /  6 °C 28.98in /  981.3hPa SSE 1.9mph /  3.1km/h 6mph /  9.7km/h 93% 0.00in /  0mm 0 W/m2
01:54 44.8 °F /  7.1 °C 42.8 °F /  6 °C 28.97in /  980.9hPa South 1.7mph /  2.7km/h 8mph /  12.9km/h 93% 0.00in /  0mm 0 W/m2
01:59 44.8 °F /  7.1 °C 42.8 °F /  6 °C 28.97in /  980.9hPa South 4.8mph /  7.7km/h 10mph /  16.1km/h 93% 0.00in /  0mm 0 W/m2
02:04 44.8 °F /  7.1 °C 42.8 °F /  6 °C 28.97in /  980.9hPa SSE 3.2mph /  5.1km/h 5mph /  8km/h 93% 0.00in /  0mm 0 W/m2
02:09 44.8 °F /  7.1 °C 42.8 °F /  6 °C 28.97in /  980.9hPa South 0.7mph /  1.1km/h 5mph /  8km/h 93% 0.00in /  0mm 0 W/m2
02:14 44.8 °F /  7.1 °C 42.8 °F /  6 °C 28.97in /  980.9hPa SSE 1.6mph /  2.6km/h 5mph /  8km/h 93% 0.00in /  0mm 0 W/m2
02:19 44.8 °F /  7.1 °C 42.8 °F /  6 °C 28.97in /  980.9hPa SSE 3mph /  4.8km/h 6mph /  9.7km/h 93% 0.00in /  0mm 0 W/m2
02:24 44.6 °F /  7 °C 42.6 °F /  5.9 °C 28.97in /  980.9hPa ESE 2mph /  3.2km/h 3mph /  4.8km/h 93% 0.00in /  0mm 0 W/m2
02:29 44.4 °F /  6.9 °C 42.4 °F /  5.8 °C 28.97in /  980.9hPa SE 2.4mph /  3.9km/h 4mph /  6.4km/h 93% 0.00in /  0mm 0 W/m2
02:34 44.3 °F /  6.8 °C 42.4 °F /  5.8 °C 28.97in /  980.9hPa East 1.7mph /  2.7km/h 5mph /  8km/h 93% 0.00in /  0mm 0 W/m2
02:39 44.1 °F /  6.7 °C 42.1 °F /  5.6 °C 28.96in /  980.6hPa ENE 1.3mph /  2.1km/h 3mph /  4.8km/h 93% 0.00in /  0mm 0 W/m2
02:44 44.1 °F /  6.7 °C 42.1 °F /  5.6 °C 28.96in /  980.6hPa NE 0.9mph /  1.4km/h 3mph /  4.8km/h 93% 0.00in /  0mm 0 W/m2
02:49 43.9 °F /  6.6 °C 41.9 °F /  5.5 °C 28.96in /  980.6hPa ENE 1.2mph /  1.9km/h 3mph /  4.8km/h 93% 0.00in /  0mm 0 W/m2
02:54 43.9 °F /  6.6 °C 41.9 °F /  5.5 °C 28.96in /  980.6hPa East 0.9mph /  1.4km/h 2mph /  3.2km/h 93% 0.00in /  0mm 0 W/m2
02:59 44.1 °F /  6.7 °C 42.1 °F /  5.6 °C 28.96in /  980.6hPa SE 2mph /  3.2km/h 3mph /  4.8km/h 93% 0.00in /  0mm 0 W/m2
03:04 44.1 °F /  6.7 °C 42.1 °F /  5.6 °C 28.95in /  980.2hPa ESE 1.9mph /  3.1km/h 5mph /  8km/h 93% 0.00in /  0mm 0 W/m2
03:09 44.1 °F /  6.7 °C 42.1 °F /  5.6 °C 28.95in /  980.2hPa ESE 3.7mph /  6km/h 5mph /  8km/h 93% 0.00in /  0mm 0 W/m2
03:13 44.2 °F /  6.8 °C 42.3 °F /  5.7 °C 28.95in /  980.2hPa ESE 4.5mph /  7.2km/h 7mph /  11.3km/h 93% 0.00in /  0mm 0 W/m2
03:19 44.3 °F /  6.8 °C 42.4 °F /  5.8 °C 28.95in /  980.2hPa SE 2.3mph /  3.7km/h 7mph /  11.3km/h 93% 0.00in /  0mm 0 W/m2
03:24 44.6 °F /  7 °C 42.6 °F /  5.9 °C 28.95in /  980.2hPa SSE 3.3mph /  5.3km/h 9mph /  14.5km/h 93% 0.00in /  0mm 0 W/m2
03:29 44.8 °F /  7.1 °C 42.8 °F /  6 °C 28.95in /  980.2hPa SSE 4.2mph /  6.8km/h 9mph /  14.5km/h 93% 0.00in /  0mm 0 W/m2
03:34 45 °F /  7.2 °C 43 °F /  6.1 °C 28.95in /  980.2hPa SSE 3.7mph /  6km/h 7mph /  11.3km/h 93% 0.00in /  0mm 0 W/m2
03:39 45 °F /  7.2 °C 43 °F /  6.1 °C 28.94in /  979.9hPa SSE 2.4mph /  3.9km/h 8mph /  12.9km/h 93% 0.00in /  0mm 0 W/m2
03:44 45 °F /  7.2 °C 43.1 °F /  6.2 °C 28.94in /  979.9hPa SSE 3mph /  4.8km/h 7mph /  11.3km/h 93.3% 0.01in /  0.25mm 0 W/m2
03:49 45.1 °F /  7.3 °C 43.1 °F /  6.2 °C 28.94in /  979.9hPa SSE 2.7mph /  4.3km/h 6mph /  9.7km/h 93% 0.02in /  0.51mm 0 W/m2
03:54 45.1 °F /  7.3 °C 43.5 °F /  6.4 °C 28.94in /  979.9hPa SSE 2.7mph /  4.3km/h 5mph /  8km/h 94% 0.02in /  0.51mm 0 W/m2
03:59 45.2 °F /  7.3 °C 43.6 °F /  6.4 °C 28.95in /  980.2hPa South 5.6mph /  9km/h 10mph /  16.1km/h 94% 0.03in /  0.76mm 0 W/m2
04:04 45.3 °F /  7.4 °C 43.7 °F /  6.5 °C 28.94in /  979.9hPa South 3.2mph /  5.1km/h 6mph /  9.7km/h 94% 0.03in /  0.76mm 0 W/m2
04:09 45.3 °F /  7.4 °C 43.7 °F /  6.5 °C 28.95in /  980.2hPa South 4.2mph /  6.8km/h 11mph /  17.7km/h 94% 0.04in /  1.02mm 0 W/m2
04:14 45.3 °F /  7.4 °C 43.7 °F /  6.5 °C 28.95in /  980.2hPa South 3.7mph /  6km/h 11mph /  17.7km/h 94% 0.04in /  1.02mm 0 W/m2
04:19 45.3 °F /  7.4 °C 43.7 °F /  6.5 °C 28.94in /  979.9hPa South 5.5mph /  8.9km/h 8mph /  12.9km/h 93.8% 0.04in /  1.02mm 0 W/m2
04:24 45.5 °F /  7.5 °C 43.5 °F /  6.4 °C 28.94in /  979.9hPa South 4mph /  6.4km/h 8mph /  12.9km/h 93% 0.04in /  1.02mm 0 W/m2
04:29 45.5 °F /  7.5 °C 43.5 °F /  6.4 °C 28.94in /  979.9hPa South 3.2mph /  5.1km/h 7mph /  11.3km/h 93% 0.04in /  1.02mm 0 W/m2
04:34 45.5 °F /  7.5 °C 43.5 °F /  6.4 °C 28.94in /  979.9hPa SSW 1.8mph /  2.9km/h 5mph /  8km/h 93% 0.04in /  1.02mm 0 W/m2
04:39 45.6 °F /  7.6 °C 43.6 °F /  6.4 °C 28.94in /  979.9hPa South 3.3mph /  5.3km/h 7mph /  11.3km/h 93% 0.04in /  1.02mm 0 W/m2
04:44 45.7 °F /  7.6 °C 43.7 °F /  6.5 °C 28.94in /  979.9hPa South 1.7mph /  2.7km/h 6mph /  9.7km/h 93% 0.03in /  0.76mm 0 W/m2
04:49 45.7 °F /  7.6 °C 43.7 °F /  6.5 °C 28.94in /  979.9hPa SE 0.5mph /  0.8km/h 7mph /  11.3km/h 93% 0.02in /  0.51mm 0 W/m2
04:54 45.5 °F /  7.5 °C 43.5 °F /  6.4 °C 28.94in /  979.9hPa South 0.8mph /  1.3km/h 5mph /  8km/h 93% 0.02in /  0.51mm 0 W/m2
04:59 45.2 °F /  7.3 °C 43.3 °F /  6.3 °C 28.94in /  979.9hPa NW 1.6mph /  2.6km/h 3mph /  4.8km/h 93% 0.02in /  0.51mm 0 W/m2
05:04 45 °F /  7.2 °C 43 °F /  6.1 °C 28.94in /  979.9hPa NE 0.5mph /  0.8km/h 3mph /  4.8km/h 93% 0.01in /  0.25mm 0 W/m2
05:09 44.8 °F /  7.1 °C 42.8 °F /  6 °C 28.94in /  979.9hPa NE 0.5mph /  0.8km/h 2mph /  3.2km/h 93% 0.01in /  0.25mm 0 W/m2
05:14 44.7 °F /  7.1 °C 42.7 °F /  5.9 °C 28.94in /  979.9hPa NE 0.8mph /  1.3km/h 2mph /  3.2km/h 93% 0.00in /  0mm 0 W/m2
05:19 44.6 °F /  7 °C 42.6 °F /  5.9 °C 28.94in /  979.9hPa NNW 1.2mph /  1.9km/h 4mph /  6.4km/h 93% 0.00in /  0mm 0 W/m2
05:23 44.8 °F /  7.1 °C 42.8 °F /  6 °C 28.94in /  979.9hPa SSW 0.2mph /  0.3km/h 2mph /  3.2km/h 93% 0.00in /  0mm 0 W/m2
05:29 44.7 °F /  7.1 °C 42.7 °F /  5.9 °C 28.94in /  979.9hPa South 1.1mph /  1.8km/h 3mph /  4.8km/h 93% 0.00in /  0mm 0 W/m2
05:34 44.4 °F /  6.9 °C 42.4 °F /  5.8 °C 28.93in /  979.6hPa South 1.3mph /  2.1km/h 4mph /  6.4km/h 93% 0.00in /  0mm 0 W/m2
05:39 44.4 °F /  6.9 °C 42.4 °F /  5.8 °C 28.94in /  979.9hPa SSW 0.5mph /  0.8km/h 4mph /  6.4km/h 93% 0.00in /  0mm 0 W/m2
05:44 44.4 °F /  6.9 °C 42.4 °F /  5.8 °C 28.94in /  979.9hPa SSW 0.9mph /  1.4km/h 2mph /  3.2km/h 93% 0.00in /  0mm 0 W/m2
05:49 44.2 °F /  6.8 °C 42.2 °F /  5.7 °C 28.93in /  979.6hPa ESE 2.6mph /  4.2km/h 5mph /  8km/h 93% 0.00in /  0mm 0 W/m2
05:54 44.1 °F /  6.7 °C 42.1 °F /  5.6 °C 28.93in /  979.6hPa SE 0.7mph /  1.1km/h 3mph /  4.8km/h 93% 0.00in /  0mm 0 W/m2
05:59 44.1 °F /  6.7 °C 42.1 °F /  5.6 °C 28.93in /  979.6hPa SE 0.2mph /  0.3km/h 2mph /  3.2km/h 93% 0.00in /  0mm 0 W/m2
06:04 44 °F /  6.7 °C 42 °F /  5.6 °C 28.94in /  979.9hPa SE 1.7mph /  2.7km/h 5mph /  8km/h 93% 0.00in /  0mm 0 W/m2
06:09 43.9 °F /  6.6 °C 41.9 °F /  5.5 °C 28.94in /  979.9hPa SE 1.2mph /  1.9km/h 5mph /  8km/h 93% 0.00in /  0mm 0 W/m2
06:14 44.2 °F /  6.8 °C 42.2 °F /  5.7 °C 28.93in /  979.6hPa South 1mph /  1.6km/h 4mph /  6.4km/h 93% 0.00in /  0mm 0 W/m2
06:19 44.2 °F /  6.8 °C 42.3 °F /  5.7 °C 28.93in /  979.6hPa SE 1mph /  1.6km/h 3mph /  4.8km/h 93% 0.00in /  0mm 0 W/m2
06:24 44.1 °F /  6.7 °C 42.2 °F /  5.7 °C 28.93in /  979.6hPa SE 0.7mph /  1.1km/h 2mph /  3.2km/h 93% 0.00in /  0mm 0 W/m2
06:29 44.2 °F /  6.8 °C 42.2 °F /  5.7 °C 28.92in /  979.2hPa ENE 0.9mph /  1.4km/h 2mph /  3.2km/h 93% 0.00in /  0mm 0 W/m2
06:34 44.1 °F /  6.7 °C 42.1 °F /  5.6 °C 28.92in /  979.2hPa NNE 2.4mph /  3.9km/h 3mph /  4.8km/h 93% 0.00in /  0mm 0 W/m2
06:39 43.9 °F /  6.6 °C 41.9 °F /  5.5 °C 28.92in /  979.2hPa NNE 0.5mph /  0.8km/h 3mph /  4.8km/h 93% 0.00in /  0mm 0 W/m2
06:44 43.9 °F /  6.6 °C 41.9 °F /  5.5 °C 28.92in /  979.2hPa ENE 2.1mph /  3.4km/h 4mph /  6.4km/h 93% 0.00in /  0mm 0 W/m2
06:49 44 °F /  6.7 °C 42 °F /  5.6 °C 28.93in /  979.6hPa ESE 1.3mph /  2.1km/h 3mph /  4.8km/h 93% 0.00in /  0mm 0 W/m2
06:54 44.1 °F /  6.7 °C 42.2 °F /  5.7 °C 28.93in /  979.6hPa NE 5.2mph /  8.4km/h 6mph /  9.7km/h 93% 0.00in /  0mm 0 W/m2
06:59 44.4 °F /  6.9 °C 42.4 °F /  5.8 °C 28.93in /  979.6hPa SW 1.2mph /  1.9km/h 6mph /  9.7km/h 93% 0.00in /  0mm 0 W/m2
07:04 44.6 °F /  7 °C 42.6 °F /  5.9 °C 28.93in /  979.6hPa SW 1.8mph /  2.9km/h 5mph /  8km/h 93% 0.00in /  0mm 0 W/m2
07:09 44.8 °F /  7.1 °C 42.8 °F /  6 °C 28.93in /  979.6hPa Calm   1mph /  1.6km/h 93% 0.00in /  0mm 0 W/m2
07:14 44.8 °F /  7.1 °C 42.8 °F /  6 °C 28.93in /  979.6hPa SSW 0.2mph /  0.3km/h 2mph /  3.2km/h 93% 0.00in /  0mm 0 W/m2
07:19 44.6 °F /  7 °C 42.6 °F /  5.9 °C 28.93in /  979.6hPa SSW 0.5mph /  0.8km/h 2mph /  3.2km/h 93% 0.00in /  0mm 0 W/m2
07:24 44.6 °F /  7 °C 42.6 °F /  5.9 °C 28.93in /  979.6hPa SSW 1.7mph /  2.7km/h 4mph /  6.4km/h 93% 0.00in /  0mm 0 W/m2
07:29 45 °F /  7.2 °C 43 °F /  6.1 °C 28.92in /  979.2hPa SSW 2.3mph /  3.7km/h 5mph /  8km/h 93% 0.00in /  0mm 0 W/m2
07:34 45.1 °F /  7.3 °C 43.2 °F /  6.2 °C 28.92in /  979.2hPa SSW 1.2mph /  1.9km/h 2mph /  3.2km/h 93% 0.00in /  0mm 0 W/m2
07:39 45.1 °F /  7.3 °C 43.1 °F /  6.2 °C 28.92in /  979.2hPa WSW 1.1mph /  1.8km/h 4mph /  6.4km/h 93% 0.00in /  0mm 0 W/m2
07:44 45.1 °F /  7.3 °C 43.1 °F /  6.2 °C 28.93in /  979.6hPa WSW 2mph /  3.2km/h 6mph /  9.7km/h 92.6% 0.00in /  0mm 0 W/m2
07:49 45.3 °F /  7.4 °C 43.2 °F /  6.2 °C 28.93in /  979.6hPa SW 2.3mph /  3.7km/h 5mph /  8km/h 92% 0.00in /  0mm 0 W/m2
07:54 45.3 °F /  7.4 °C 43.2 °F /  6.2 °C 28.93in /  979.6hPa WSW 2mph /  3.2km/h 5mph /  8km/h 92% 0.00in /  0mm 0 W/m2
07:59 45.3 °F /  7.4 °C 43.2 °F /  6.2 °C 28.93in /  979.6hPa SW 0.9mph /  1.4km/h 3mph /  4.8km/h 92% 0.00in /  0mm 0 W/m2
08:04 45.2 °F /  7.3 °C 43.1 °F /  6.2 °C 28.93in /  979.6hPa WSW 2.8mph /  4.5km/h 5mph /  8km/h 92% 0.00in /  0mm 0 W/m2
08:09 45.3 °F /  7.4 °C 43.2 °F /  6.2 °C 28.93in /  979.6hPa SW 3mph /  4.8km/h 5mph /  8km/h 92% 0.00in /  0mm 0 W/m2
08:14 45.3 °F /  7.4 °C 43.1 °F /  6.2 °C 28.93in /  979.6hPa SW 2.6mph /  4.2km/h 6mph /  9.7km/h 91.6% 0.00in /  0mm 0 W/m2
08:19 45.5 °F /  7.5 °C 43 °F /  6.1 °C 28.93in /  979.6hPa SW 1.9mph /  3.1km/h 6mph /  9.7km/h 91% 0.00in /  0mm 5 W/m2
08:24 45.5 °F /  7.5 °C 43 °F /  6.1 °C 28.93in /  979.6hPa SW 4.2mph /  6.8km/h 7mph /  11.3km/h 91% 0.00in /  0mm 7 W/m2
08:29 45.7 °F /  7.6 °C 43.1 °F /  6.2 °C 28.93in /  979.6hPa SW 4.4mph /  7.1km/h 11mph /  17.7km/h 90.4% 0.00in /  0mm 7 W/m2
08:34 45.7 °F /  7.6 °C 43 °F /  6.1 °C 28.93in /  979.6hPa SW 3mph /  4.8km/h 11mph /  17.7km/h 90% 0.00in /  0mm 9 W/m2
08:39 45.7 °F /  7.6 °C 43 °F /  6.1 °C 28.92in /  979.2hPa SW 4.2mph /  6.8km/h 11mph /  17.7km/h 90% 0.00in /  0mm 12 W/m2
08:44 45.8 °F /  7.7 °C 42.7 °F /  5.9 °C 28.92in /  979.2hPa SW 3.8mph /  6.1km/h 7mph /  11.3km/h 89% 0.00in /  0mm 16 W/m2
08:49 45.9 °F /  7.7 °C 42.8 °F /  6 °C 28.92in /  979.2hPa SSW 1.6mph /  2.6km/h 4mph /  6.4km/h 89% 0.00in /  0mm 21 W/m2
08:54 45.7 °F /  7.6 °C 42.5 °F /  5.8 °C 28.93in /  979.6hPa SW 2mph /  3.2km/h 6mph /  9.7km/h 88.8% 0.00in /  0mm 39 W/m2
08:59 45.9 °F /  7.7 °C 42.5 °F /  5.8 °C 28.93in /  979.6hPa WSW 4.1mph /  6.6km/h 6mph /  9.7km/h 88.4% 0.00in /  0mm 44 W/m2
09:04 46 °F /  7.8 °C 42.6 °F /  5.9 °C 28.93in /  979.6hPa WSW 3.2mph /  5.1km/h 8mph /  12.9km/h 88% 0.00in /  0mm 28 W/m2
09:09 46.2 °F /  7.9 °C 42.8 °F /  6 °C 28.92in /  979.2hPa SSW 5.8mph /  9.3km/h 10mph /  16.1km/h 88% 0.00in /  0mm 25 W/m2
09:14 46.4 °F /  8 °C 43 °F /  6.1 °C 28.92in /  979.2hPa SW 4.2mph /  6.8km/h 11mph /  17.7km/h 88% 0.00in /  0mm 23 W/m2
09:19 46.6 °F /  8.1 °C 43.2 °F /  6.2 °C 28.92in /  979.2hPa SW 4.2mph /  6.8km/h 10mph /  16.1km/h 88% 0.00in /  0mm 25 W/m2
09:24 46.7 °F /  8.2 °C 43.2 °F /  6.2 °C 28.92in /  979.2hPa SW 3.2mph /  5.1km/h 10mph /  16.1km/h 88% 0.00in /  0mm 25 W/m2
09:29 46.8 °F /  8.2 °C 43.3 °F /  6.3 °C 28.92in /  979.2hPa SW 4mph /  6.4km/h 8mph /  12.9km/h 88% 0.00in /  0mm 26 W/m2
09:34 46.9 °F /  8.3 °C 43.3 °F /  6.3 °C 28.92in /  979.2hPa SSW 4.2mph /  6.8km/h 9mph /  14.5km/h 87.4% 0.00in /  0mm 28 W/m2
09:39 46.9 °F /  8.3 °C 43.5 °F /  6.4 °C 28.92in /  979.2hPa SW 3.7mph /  6km/h 7mph /  11.3km/h 87.8% 0.00in /  0mm 28 W/m2
09:44 46.9 °F /  8.3 °C 43.5 °F /  6.4 °C 28.92in /  979.2hPa SW 3.3mph /  5.3km/h 7mph /  11.3km/h 88% 0.00in /  0mm 30 W/m2
09:49 47 °F /  8.3 °C 43.6 °F /  6.4 °C 28.92in /  979.2hPa SSW 2.7mph /  4.3km/h 6mph /  9.7km/h 88% 0.00in /  0mm 30 W/m2
09:54 47.1 °F /  8.4 °C 43.7 °F /  6.5 °C 28.92in /  979.2hPa SSW 4.1mph /  6.6km/h 7mph /  11.3km/h 88% 0.00in /  0mm 32 W/m2
09:59 47.3 °F /  8.5 °C 43.8 °F /  6.6 °C 28.92in /  979.2hPa SW 3.7mph /  6km/h 7mph /  11.3km/h 87.8% 0.00in /  0mm 35 W/m2
10:04 47.5 °F /  8.6 °C 44 °F /  6.7 °C 28.92in /  979.2hPa SSW 4.1mph /  6.6km/h 9mph /  14.5km/h 87.2% 0.00in /  0mm 40 W/m2
10:09 47.7 °F /  8.7 °C 44.2 °F /  6.8 °C 28.92in /  979.2hPa SW 4.2mph /  6.8km/h 9mph /  14.5km/h 87.5% 0.00in /  0mm 44 W/m2
10:14 47.7 °F /  8.7 °C 44.1 °F /  6.7 °C 28.92in /  979.2hPa WSW 3.6mph /  5.8km/h 8mph /  12.9km/h 87% 0.00in /  0mm 72 W/m2
10:19 48 °F /  8.9 °C 44.4 °F /  6.9 °C 28.92in /  979.2hPa SSW 3.7mph /  6km/h 7mph /  11.3km/h 87% 0.00in /  0mm 72 W/m2
10:24 48.3 °F /  9.1 °C 44.7 °F /  7.1 °C 28.92in /  979.2hPa SW 3.8mph /  6.1km/h 8mph /  12.9km/h 87% 0.00in /  0mm 69 W/m2
10:28 48.5 °F /  9.2 °C 44.8 °F /  7.1 °C 28.92in /  979.2hPa WSW 5mph /  8km/h 10mph /  16.1km/h 87% 0.00in /  0mm 74 W/m2
10:34 48.6 °F /  9.2 °C 44.8 °F /  7.1 °C 28.92in /  979.2hPa SW 3.2mph /  5.1km/h 10mph /  16.1km/h 86.8% 0.00in /  0mm 77 W/m2
10:39 48.8 °F /  9.3 °C 45.1 °F /  7.3 °C 28.92in /  979.2hPa SW 2.5mph /  4km/h 6mph /  9.7km/h 87% 0.00in /  0mm 83 W/m2
10:44 49.1 °F /  9.5 °C 45.1 °F /  7.3 °C 28.92in /  979.2hPa WSW 6.2mph /  10km/h 9mph /  14.5km/h 86% 0.00in /  0mm 91 W/m2
10:49 49.3 °F /  9.6 °C 45.3 °F /  7.4 °C 28.92in /  979.2hPa SW 4.1mph /  6.6km/h 10mph /  16.1km/h 86% 0.00in /  0mm 100 W/m2
10:54 49.4 °F /  9.7 °C 45.4 °F /  7.4 °C 28.91in /  978.9hPa SW 2.8mph /  4.5km/h 10mph /  16.1km/h 86% 0.00in /  0mm 104 W/m2
10:59 49.6 °F /  9.8 °C 45.7 °F /  7.6 °C 28.90in /  978.6hPa South 3.7mph /  6km/h 7mph /  11.3km/h 86% 0.00in /  0mm 111 W/m2
11:04 49.8 °F /  9.9 °C 45.9 °F /  7.7 °C 28.90in /  978.6hPa South 5.6mph /  9km/h 10mph /  16.1km/h 86% 0.00in /  0mm 118 W/m2
11:09 50 °F /  10 °C 45.8 °F /  7.7 °C 28.90in /  978.6hPa South 4.4mph /  7.1km/h 9mph /  14.5km/h 85.4% 0.00in /  0mm 123 W/m2
11:14 50 °F /  10 °C 45.7 °F /  7.6 °C 28.89in /  978.2hPa SSW 7.2mph /  11.6km/h 11mph /  17.7km/h 85% 0.00in /  0mm 125 W/m2
11:19 50.2 °F /  10.1 °C 45.8 °F /  7.7 °C 28.89in /  978.2hPa SSW 4mph /  6.4km/h 8mph /  12.9km/h 84.8% 0.00in /  0mm 134 W/m2
11:24 50.3 °F /  10.2 °C 45.6 °F /  7.6 °C 28.89in /  978.2hPa SSW 3.2mph /  5.1km/h 7mph /  11.3km/h 84.2% 0.00in /  0mm 139 W/m2
11:29 50.6 °F /  10.3 °C 46.3 °F /  7.9 °C 28.89in /  978.2hPa SW 3.2mph /  5.1km/h 8mph /  12.9km/h 85% 0.00in /  0mm 141 W/m2
11:34 50.5 °F /  10.3 °C 46.2 °F /  7.9 °C 28.88in /  977.9hPa SW 3.6mph /  5.8km/h 6mph /  9.7km/h 84.8% 0.00in /  0mm 144 W/m2
11:39 50.7 °F /  10.4 °C 46.4 °F /  8 °C 28.88in /  977.9hPa SSW 3.6mph /  5.8km/h 8mph /  12.9km/h 84.8% 0.00in /  0mm 144 W/m2
11:44 50.6 °F /  10.3 °C 45.9 °F /  7.7 °C 28.88in /  977.9hPa SSW 4.5mph /  7.2km/h 8mph /  12.9km/h 84% 0.00in /  0mm 97 W/m2
11:49 50.5 °F /  10.3 °C 46.1 °F /  7.8 °C 28.87in /  977.5hPa SSW 4.2mph /  6.8km/h 9mph /  14.5km/h 85% 0.00in /  0mm 91 W/m2
11:54 50.2 °F /  10.1 °C 45.8 °F /  7.7 °C 28.87in /  977.5hPa South 3.9mph /  6.3km/h 9mph /  14.5km/h 84.8% 0.00in /  0mm 130 W/m2
11:59 50.2 °F /  10.1 °C 45.9 °F /  7.7 °C 28.87in /  977.5hPa SSW 3.6mph /  5.8km/h 7mph /  11.3km/h 85% 0.00in /  0mm 162 W/m2
12:04 50.1 °F /  10.1 °C 45.9 °F /  7.7 °C 28.87in /  977.5hPa South 2.4mph /  3.9km/h 6mph /  9.7km/h 85.4% 0.00in /  0mm 104 W/m2
12:09 50 °F /  10 °C 46 °F /  7.8 °C 28.87in /  977.5hPa South 2.5mph /  4km/h 7mph /  11.3km/h 86% 0.00in /  0mm 107 W/m2
12:14 49.8 °F /  9.9 °C 45.9 °F /  7.7 °C 28.86in /  977.2hPa South 4.7mph /  7.6km/h 9mph /  14.5km/h 86% 0.00in /  0mm 114 W/m2
12:19 49.8 °F /  9.9 °C 45.9 °F /  7.7 °C 28.86in /  977.2hPa South 3.7mph /  6km/h 7mph /  11.3km/h 86% 0.00in /  0mm 95 W/m2
12:24 49.8 °F /  9.9 °C 45.9 °F /  7.7 °C 28.86in /  977.2hPa South 5.8mph /  9.3km/h 9mph /  14.5km/h 86% 0.00in /  0mm 83 W/m2
12:29 50 °F /  10 °C 46 °F /  7.8 °C 28.85in /  976.9hPa South 5.5mph /  8.9km/h 8mph /  12.9km/h 86% 0.00in /  0mm 100 W/m2
12:34 50.1 °F /  10.1 °C 46.1 °F /  7.8 °C 28.85in /  976.9hPa South 3.6mph /  5.8km/h 8mph /  12.9km/h 86% 0.00in /  0mm 109 W/m2
12:39 50.2 °F /  10.1 °C 46.4 °F /  8 °C 28.85in /  976.9hPa SSW 2.5mph /  4km/h 9mph /  14.5km/h 86.8% 0.00in /  0mm 105 W/m2
12:44 50.2 °F /  10.1 °C 46.4 °F /  8 °C 28.84in /  976.5hPa South 3.1mph /  5km/h 6mph /  9.7km/h 87% 0.00in /  0mm 100 W/m2
12:49 50.2 °F /  10.1 °C 46.4 °F /  8 °C 28.84in /  976.5hPa SSE 2.8mph /  4.5km/h 5mph /  8km/h 87% 0.00in /  0mm 90 W/m2
12:54 50.2 °F /  10.1 °C 46.4 °F /  8 °C 28.84in /  976.5hPa South 2.4mph /  3.9km/h 6mph /  9.7km/h 87% 0.00in /  0mm 69 W/m2
12:59 50.2 °F /  10.1 °C 46.4 °F /  8 °C 28.83in /  976.2hPa SSE 4mph /  6.4km/h 7mph /  11.3km/h 87% 0.00in /  0mm 83 W/m2
13:04 50.2 °F /  10.1 °C 46.4 °F /  8 °C 28.83in /  976.2hPa South 4mph /  6.4km/h 7mph /  11.3km/h 87% 0.00in /  0mm 97 W/m2
13:09 50.2 °F /  10.1 °C 46.4 °F /  8 °C 28.83in /  976.2hPa SSE 4.9mph /  7.9km/h 9mph /  14.5km/h 87% 0.00in /  0mm 83 W/m2
13:14 49.8 °F /  9.9 °C 46 °F /  7.8 °C 28.83in /  976.2hPa SSE 3.7mph /  6km/h 9mph /  14.5km/h 87% 0.00in /  0mm 60 W/m2
13:18 49.7 °F /  9.8 °C 46 °F /  7.8 °C 28.82in /  975.8hPa SSE 6.5mph /  10.5km/h 10mph /  16.1km/h 87% 0.00in /  0mm 37 W/m2
13:24 49.6 °F /  9.8 °C 46 °F /  7.8 °C 28.82in /  975.8hPa South 5.1mph /  8.2km/h 13mph /  20.9km/h 87.2% 0.00in /  0mm 46 W/m2
13:29 49.6 °F /  9.8 °C 46.2 °F /  7.9 °C 28.82in /  975.8hPa SSE 4.5mph /  7.2km/h 8mph /  12.9km/h 88% 0.00in /  0mm 60 W/m2
13:34 49.5 °F /  9.7 °C 46.1 °F /  7.8 °C 28.82in /  975.8hPa SSE 5mph /  8km/h 9mph /  14.5km/h 88% 0.01in /  0.25mm 56 W/m2
13:39 49.5 °F /  9.7 °C 46.1 °F /  7.8 °C 28.81in /  975.5hPa SSE 3.7mph /  6km/h 9mph /  14.5km/h 88.2% 0.01in /  0.25mm 53 W/m2
13:44 49.5 °F /  9.7 °C 46.2 °F /  7.9 °C 28.81in /  975.5hPa SSE 3.2mph /  5.1km/h 7mph /  11.3km/h 88.6% 0.01in /  0.25mm 40 W/m2
13:49 49.5 °F /  9.7 °C 46.4 °F /  8 °C 28.81in /  975.5hPa SSE 4.2mph /  6.8km/h 8mph /  12.9km/h 89% 0.01in /  0.25mm 40 W/m2
13:54 49.5 °F /  9.7 °C 46.4 °F /  8 °C 28.80in /  975.2hPa SSE 2.9mph /  4.7km/h 8mph /  12.9km/h 89% 0.01in /  0.25mm 37 W/m2
13:58 49.5 °F /  9.7 °C 46.4 °F /  8 °C 28.80in /  975.2hPa SSE 4.8mph /  7.7km/h 10mph /  16.1km/h 89% 0.01in /  0.25mm 47 W/m2
14:04 49.5 °F /  9.7 °C 46.4 °F /  8 °C 28.80in /  975.2hPa SSE 5.8mph /  9.3km/h 9mph /  14.5km/h 89% 0.01in /  0.25mm 58 W/m2
14:09 49.5 °F /  9.7 °C 46.4 °F /  8 °C 28.80in /  975.2hPa South 3.7mph /  6km/h 8mph /  12.9km/h 89% 0.01in /  0.25mm 53 W/m2
14:14 49.5 °F /  9.7 °C 46.4 °F /  8 °C 28.80in /  975.2hPa SSE 3.8mph /  6.1km/h 7mph /  11.3km/h 89% 0.01in /  0.25mm 30 W/m2
14:19 49.5 °F /  9.7 °C 46.4 °F /  8 °C 28.80in /  975.2hPa SSE 4.1mph /  6.6km/h 11mph /  17.7km/h 89% 0.01in /  0.25mm 33 W/m2
14:24 49.3 °F /  9.6 °C 46.2 °F /  7.9 °C 28.80in /  975.2hPa SE 3.7mph /  6km/h 11mph /  17.7km/h 89% 0.01in /  0.25mm 32 W/m2
14:29 49.3 °F /  9.6 °C 46.2 °F /  7.9 °C 28.80in /  975.2hPa SSE 3.7mph /  6km/h 7mph /  11.3km/h 89% 0.01in /  0.25mm 19 W/m2
14:34 49.3 °F /  9.6 °C 46.2 °F /  7.9 °C 28.80in /  975.2hPa SSE 5mph /  8km/h 8mph /  12.9km/h 89% 0.01in /  0.25mm 25 W/m2
14:39 49.3 °F /  9.6 °C 46.2 °F /  7.9 °C 28.79in /  974.8hPa South 7.4mph /  11.9km/h 12mph /  19.3km/h 89% 0.00in /  0mm 23 W/m2
14:44 49.3 °F /  9.6 °C 46.2 °F /  7.9 °C 28.79in /  974.8hPa SSE 6.6mph /  10.6km/h 9mph /  14.5km/h 89% 0.00in /  0mm 23 W/m2
14:49 49.3 °F /  9.6 °C 46.2 °F /  7.9 °C 28.79in /  974.8hPa SSE 4.7mph /  7.6km/h 14mph /  22.5km/h 89% 0.00in /  0mm 21 W/m2
14:54 49.3 °F /  9.6 °C 46.2 °F /  7.9 °C 28.79in /  974.8hPa South 5.5mph /  8.9km/h 10mph /  16.1km/h 89% 0.00in /  0mm 18 W/m2
14:59 49.3 °F /  9.6 °C 46.2 °F /  7.9 °C 28.78in /  974.5hPa South 5.2mph /  8.4km/h 11mph /  17.7km/h 89% 0.00in /  0mm 18 W/m2
15:04 49.3 °F /  9.6 °C 46.2 °F /  7.9 °C 28.78in /  974.5hPa SSE 2.9mph /  4.7km/h 9mph /  14.5km/h 89% 0.00in /  0mm 18 W/m2
15:09 49.3 °F /  9.6 °C 46.2 °F /  7.9 °C 28.78in /  974.5hPa SSE 3mph /  4.8km/h 7mph /  11.3km/h 89% 0.00in /  0mm 12 W/m2
15:14 49.3 °F /  9.6 °C 46.2 °F /  7.9 °C 28.78in /  974.5hPa SSE 4.6mph /  7.4km/h 8mph /  12.9km/h 89% 0.00in /  0mm 14 W/m2
15:19 49.3 °F /  9.6 °C 46.2 °F /  7.9 °C 28.77in /  974.2hPa SSE 5.2mph /  8.4km/h 10mph /  16.1km/h 89% 0.00in /  0mm 11 W/m2
15:24 49.3 °F /  9.6 °C 46.2 °F /  7.9 °C 28.77in /  974.2hPa SSE 5.3mph /  8.5km/h 8mph /  12.9km/h 89% 0.00in /  0mm 9 W/m2
15:29 49.3 °F /  9.6 °C 46.2 °F /  7.9 °C 28.77in /  974.2hPa SE 3.7mph /  6km/h 8mph /  12.9km/h 89% 0.00in /  0mm 7 W/m2
15:34 49.3 °F /  9.6 °C 46.2 °F /  7.9 °C 28.77in /  974.2hPa SE 4.2mph /  6.8km/h 7mph /  11.3km/h 89% 0.00in /  0mm 5 W/m2
15:39 49.3 °F /  9.6 °C 46.2 °F /  7.9 °C 28.77in /  974.2hPa SSE 6.8mph /  10.9km/h 14mph /  22.5km/h 89% 0.00in /  0mm 0 W/m2
15:44 49 °F /  9.4 °C 45.8 °F /  7.7 °C 28.77in /  974.2hPa SSE 6.6mph /  10.6km/h 12mph /  19.3km/h 88.6% 0.00in /  0mm 0 W/m2
15:49 48.5 °F /  9.2 °C 44.8 °F /  7.1 °C 28.76in /  973.8hPa SSE 4.6mph /  7.4km/h 12mph /  19.3km/h 87% 0.00in /  0mm 0 W/m2
15:54 48.4 °F /  9.1 °C 44.1 °F /  6.7 °C 28.76in /  973.8hPa SE 3.6mph /  5.8km/h 11mph /  17.7km/h 85% 0.00in /  0mm 0 W/m2
15:59 48.4 °F /  9.1 °C 43.5 °F /  6.4 °C 28.75in /  973.5hPa SSE 4.2mph /  6.8km/h 11mph /  17.7km/h 83.2% 0.01in /  0.25mm 0 W/m2
16:04 48.4 °F /  9.1 °C 43.3 °F /  6.3 °C 28.75in /  973.5hPa SSE 4.7mph /  7.6km/h 10mph /  16.1km/h 82.4% 0.01in /  0.25mm 0 W/m2
16:09 48.4 °F /  9.1 °C 43.3 °F /  6.3 °C 28.75in /  973.5hPa SE 3.2mph /  5.1km/h 10mph /  16.1km/h 82.4% 0.01in /  0.25mm 0 W/m2
16:14 48.4 °F /  9.1 °C 43.5 °F /  6.4 °C 28.74in /  973.1hPa ESE 3.5mph /  5.6km/h 8mph /  12.9km/h 83% 0.01in /  0.25mm 0 W/m2
16:19 48.4 °F /  9.1 °C 43.7 °F /  6.5 °C 28.74in /  973.1hPa ESE 4.8mph /  7.7km/h 9mph /  14.5km/h 83.8% 0.01in /  0.25mm 0 W/m2
16:24 48.4 °F /  9.1 °C 43.9 °F /  6.6 °C 28.73in /  972.8hPa ESE 3.7mph /  6km/h 9mph /  14.5km/h 84.4% 0.01in /  0.25mm 0 W/m2
16:29 48.4 °F /  9.1 °C 44.2 °F /  6.8 °C 28.73in /  972.8hPa ESE 4.2mph /  6.8km/h 8mph /  12.9km/h 85.2% 0.01in /  0.25mm 0 W/m2
16:34 48.5 °F /  9.2 °C 44.5 °F /  6.9 °C 28.72in /  972.5hPa SE 5.5mph /  8.9km/h 8mph /  12.9km/h 86% 0.01in /  0.25mm 0 W/m2
16:39 48.5 °F /  9.2 °C 44.6 °F /  7 °C 28.72in /  972.5hPa SSE 6.2mph /  10km/h 16mph /  25.7km/h 86.2% 0.01in /  0.25mm 0 W/m2
16:44 48.1 °F /  8.9 °C 44.5 °F /  6.9 °C 28.72in /  972.5hPa SE 8.6mph /  13.8km/h 18mph /  29km/h 87% 0.01in /  0.25mm 0 W/m2
16:49 47.8 °F /  8.8 °C 43.8 °F /  6.6 °C 28.72in /  972.5hPa SE 5.8mph /  9.3km/h 14mph /  22.5km/h 86% 0.01in /  0.25mm 0 W/m2
16:54 47.5 °F /  8.6 °C 43.5 °F /  6.4 °C 28.71in /  972.1hPa SSE 8.3mph /  13.4km/h 15mph /  24.1km/h 86% 0.02in /  0.51mm 0 W/m2
16:59 47 °F /  8.3 °C 43.1 °F /  6.2 °C 28.71in /  972.1hPa SE 6.8mph /  10.9km/h 13mph /  20.9km/h 86% 0.01in /  0.25mm 0 W/m2
17:04 46.8 °F /  8.2 °C 42.8 °F /  6 °C 28.71in /  972.1hPa SE 7.4mph /  11.9km/h 14mph /  22.5km/h 86% 0.01in /  0.25mm 0 W/m2
17:09 46.5 °F /  8.1 °C 42.5 °F /  5.8 °C 28.70in /  971.8hPa SE 5.1mph /  8.2km/h 13mph /  20.9km/h 86% 0.02in /  0.51mm 0 W/m2
17:14 46.3 °F /  7.9 °C 42.3 °F /  5.7 °C 28.70in /  971.8hPa ESE 6.8mph /  10.9km/h 13mph /  20.9km/h 86% 0.02in /  0.51mm 0 W/m2
17:19 46.1 °F /  7.8 °C 42.4 °F /  5.8 °C 28.70in /  971.8hPa ESE 4.8mph /  7.7km/h 10mph /  16.1km/h 86.8% 0.02in /  0.51mm 0 W/m2
17:24 46 °F /  7.8 °C 42.4 °F /  5.8 °C 28.69in /  971.4hPa ESE 8.4mph /  13.5km/h 14mph /  22.5km/h 87% 0.03in /  0.76mm 0 W/m2
17:29 46 °F /  7.8 °C 42.5 °F /  5.8 °C 28.69in /  971.4hPa SE 7.8mph /  12.6km/h 17mph /  27.4km/h 87.6% 0.03in /  0.76mm 0 W/m2
17:34 46 °F /  7.8 °C 42.6 °F /  5.9 °C 28.68in /  971.1hPa ESE 8.8mph /  14.2km/h 17mph /  27.4km/h 88% 0.04in /  1.02mm 0 W/m2
17:39 46 °F /  7.8 °C 42.8 °F /  6 °C 28.68in /  971.1hPa East 7mph /  11.3km/h 14mph /  22.5km/h 88.4% 0.04in /  1.02mm 0 W/m2
17:44 46 °F /  7.8 °C 43 °F /  6.1 °C 28.67in /  970.8hPa ESE 5.8mph /  9.3km/h 13mph /  20.9km/h 89% 0.04in /  1.02mm 0 W/m2
17:49 46 °F /  7.8 °C 43 °F /  6.1 °C 28.66in /  970.4hPa SE 4.5mph /  7.2km/h 11mph /  17.7km/h 89% 0.05in /  1.27mm 0 W/m2
17:54 45.9 °F /  7.7 °C 42.9 °F /  6.1 °C 28.66in /  970.4hPa ESE 8.8mph /  14.2km/h 14mph /  22.5km/h 89.3% 0.04in /  1.02mm 0 W/m2
17:59 45.7 °F /  7.6 °C 43 °F /  6.1 °C 28.66in /  970.4hPa ESE 5.3mph /  8.5km/h 13mph /  20.9km/h 90% 0.04in /  1.02mm 0 W/m2
18:04 45.7 °F /  7.6 °C 43 °F /  6.1 °C 28.65in /  970.1hPa East 5.2mph /  8.4km/h 12mph /  19.3km/h 90% 0.04in /  1.02mm 0 W/m2
18:09 45.7 °F /  7.6 °C 43 °F /  6.1 °C 28.64in /  969.8hPa ESE 9.9mph /  15.9km/h 16mph /  25.7km/h 90% 0.03in /  0.76mm 0 W/m2
18:14 45.9 °F /  7.7 °C 43.2 °F /  6.2 °C 28.64in /  969.8hPa ESE 9.3mph /  15km/h 18mph /  29km/h 90% 0.03in /  0.76mm 0 W/m2
18:19 45.9 °F /  7.7 °C 43.2 °F /  6.2 °C 28.64in /  969.8hPa ESE 6.5mph /  10.5km/h 18mph /  29km/h 90.2% 0.03in /  0.76mm 0 W/m2
18:24 45.9 °F /  7.7 °C 43.3 °F /  6.3 °C 28.64in /  969.8hPa ESE 5.3mph /  8.5km/h 16mph /  25.7km/h 91% 0.03in /  0.76mm 0 W/m2
18:29 46 °F /  7.8 °C 43.4 °F /  6.3 °C 28.64in /  969.8hPa East 7.2mph /  11.6km/h 16mph /  25.7km/h 91% 0.02in /  0.51mm 0 W/m2
18:34 46 °F /  7.8 °C 43.5 °F /  6.4 °C 28.64in /  969.8hPa ESE 11.8mph /  19km/h 17mph /  27.4km/h 91% 0.02in /  0.51mm 0 W/m2
18:39 46 °F /  7.8 °C 43.5 °F /  6.4 °C 28.63in /  969.4hPa SE 12mph /  19.3km/h 19mph /  30.6km/h 91% 0.02in /  0.51mm 0 W/m2
18:44 46.1 °F /  7.8 °C 43.6 °F /  6.4 °C 28.63in /  969.4hPa ESE 8mph /  12.9km/h 16mph /  25.7km/h 91% 0.02in /  0.51mm 0 W/m2
18:49 46.2 °F /  7.9 °C 43.7 °F /  6.5 °C 28.63in /  969.4hPa East 8.5mph /  13.7km/h 18mph /  29km/h 91% 0.01in /  0.25mm 0 W/m2
18:54 46.2 °F /  7.9 °C 43.9 °F /  6.6 °C 28.63in /  969.4hPa ESE 11mph /  17.7km/h 19mph /  30.6km/h 91.4% 0.01in /  0.25mm 0 W/m2
18:59 46.2 °F /  7.9 °C 43.7 °F /  6.5 °C 28.63in /  969.4hPa East 8.4mph /  13.5km/h 19mph /  30.6km/h 91% 0.01in /  0.25mm 0 W/m2
19:04 46.2 °F /  7.9 °C 44 °F /  6.7 °C 28.63in /  969.4hPa ESE 8.8mph /  14.2km/h 16mph /  25.7km/h 91.8% 0.01in /  0.25mm 0 W/m2
19:09 46.2 °F /  7.9 °C 44.1 °F /  6.7 °C 28.63in /  969.4hPa ESE 6.2mph /  10km/h 15mph /  24.1km/h 92% 0.01in /  0.25mm 0 W/m2
19:14 46.3 °F /  7.9 °C 44.1 °F /  6.7 °C 28.63in /  969.4hPa ESE 7.5mph /  12.1km/h 11mph /  17.7km/h 92% 0.00in /  0mm 0 W/m2
19:19 46.3 °F /  7.9 °C 44.1 °F /  6.7 °C 28.62in /  969.1hPa ESE 10.6mph /  17.1km/h 16mph /  25.7km/h 92% 0.01in /  0.25mm 0 W/m2
19:24 46.3 °F /  7.9 °C 44.2 °F /  6.8 °C 28.62in /  969.1hPa ESE 8.2mph /  13.2km/h 18mph /  29km/h 92% 0.01in /  0.25mm 0 W/m2
19:29 46.3 °F /  7.9 °C 44.2 °F /  6.8 °C 28.62in /  969.1hPa SE 6.2mph /  10km/h 18mph /  29km/h 92% 0.01in /  0.25mm 0 W/m2
19:34 46.3 °F /  7.9 °C 44.2 °F /  6.8 °C 28.62in /  969.1hPa SE 8.2mph /  13.2km/h 16mph /  25.7km/h 92% 0.01in /  0.25mm 0 W/m2
19:39 46.3 °F /  7.9 °C 44.1 °F /  6.7 °C 28.62in /  969.1hPa ESE 8.8mph /  14.2km/h 15mph /  24.1km/h 92% 0.02in /  0.51mm 0 W/m2
19:44 46.2 °F /  7.9 °C 44.1 °F /  6.7 °C 28.62in /  969.1hPa SE 7.6mph /  12.2km/h 16mph /  25.7km/h 92% 0.02in /  0.51mm 0 W/m2
19:49 46.2 °F /  7.9 °C 44.1 °F /  6.7 °C 28.62in /  969.1hPa SE 5mph /  8km/h 13mph /  20.9km/h 92% 0.02in /  0.51mm 0 W/m2
19:54 46.2 °F /  7.9 °C 44.1 °F /  6.7 °C 28.61in /  968.7hPa SE 6.7mph /  10.8km/h 12mph /  19.3km/h 92% 0.02in /  0.51mm 0 W/m2
19:59 46.2 °F /  7.9 °C 44.1 °F /  6.7 °C 28.62in /  969.1hPa SE 6.2mph /  10km/h 13mph /  20.9km/h 92% 0.02in /  0.51mm 0 W/m2
20:04 46.2 °F /  7.9 °C 44.1 °F /  6.7 °C 28.61in /  968.7hPa SE 4.4mph /  7.1km/h 13mph /  20.9km/h 92% 0.02in /  0.51mm 0 W/m2
20:09 46.2 °F /  7.9 °C 44.1 °F /  6.7 °C 28.61in /  968.7hPa SE 5.2mph /  8.4km/h 10mph /  16.1km/h 92% 0.02in /  0.51mm 0 W/m2
20:14 46.3 °F /  7.9 °C 44.2 °F /  6.8 °C 28.61in /  968.7hPa ESE 5.5mph /  8.9km/h 15mph /  24.1km/h 92% 0.03in /  0.76mm 0 W/m2
20:19 46.4 °F /  8 °C 44.4 °F /  6.9 °C 28.61in /  968.7hPa ESE 6.5mph /  10.5km/h 13mph /  20.9km/h 92.8% 0.03in /  0.76mm 0 W/m2
20:24 46.3 °F /  7.9 °C 44.3 °F /  6.8 °C 28.61in /  968.7hPa ESE 6.8mph /  10.9km/h 13mph /  20.9km/h 93% 0.02in /  0.51mm 0 W/m2
20:29 46.3 °F /  7.9 °C 44.3 °F /  6.8 °C 28.62in /  969.1hPa SE 4.4mph /  7.1km/h 10mph /  16.1km/h 93% 0.02in /  0.51mm 0 W/m2
20:34 46.4 °F /  8 °C 44.4 °F /  6.9 °C 28.62in /  969.1hPa SSE 4.2mph /  6.8km/h 10mph /  16.1km/h 93% 0.02in /  0.51mm 0 W/m2
20:39 46.4 °F /  8 °C 44.4 °F /  6.9 °C 28.62in /  969.1hPa SSE 3.9mph /  6.3km/h 8mph /  12.9km/h 93% 0.02in /  0.51mm 0 W/m2
20:44 46.4 °F /  8 °C 44.4 °F /  6.9 °C 28.62in /  969.1hPa ESE 4.4mph /  7.1km/h 9mph /  14.5km/h 93% 0.02in /  0.51mm 0 W/m2
20:49 46.4 °F /  8 °C 44.4 °F /  6.9 °C 28.63in /  969.4hPa SE 4.6mph /  7.4km/h 10mph /  16.1km/h 93% 0.02in /  0.51mm 0 W/m2
20:54 46.4 °F /  8 °C 44.4 °F /  6.9 °C 28.63in /  969.4hPa SSE 2.7mph /  4.3km/h 7mph /  11.3km/h 93% 0.02in /  0.51mm 0 W/m2
20:59 46.4 °F /  8 °C 44.4 °F /  6.9 °C 28.63in /  969.4hPa ESE 2.1mph /  3.4km/h 8mph /  12.9km/h 93% 0.02in /  0.51mm 0 W/m2
21:04 46.5 °F /  8.1 °C 44.5 °F /  6.9 °C 28.63in /  969.4hPa ESE 3.4mph /  5.5km/h 8mph /  12.9km/h 93% 0.03in /  0.76mm 0 W/m2
21:09 46.4 °F /  8 °C 44.4 °F /  6.9 °C 28.63in /  969.4hPa East 2.1mph /  3.4km/h 5mph /  8km/h 93% 0.03in /  0.76mm 0 W/m2
21:14 46.4 °F /  8 °C 44.4 °F /  6.9 °C 28.63in /  969.4hPa ESE 1.6mph /  2.6km/h 5mph /  8km/h 93% 0.03in /  0.76mm 0 W/m2
21:19 46.4 °F /  8 °C 44.4 °F /  6.9 °C 28.63in /  969.4hPa ESE 2.7mph /  4.3km/h 4mph /  6.4km/h 93% 0.02in /  0.51mm 0 W/m2
21:24 46.5 °F /  8.1 °C 44.5 °F /  6.9 °C 28.64in /  969.8hPa East 1.8mph /  2.9km/h 4mph /  6.4km/h 93% 0.02in /  0.51mm 0 W/m2
21:29 46.6 °F /  8.1 °C 44.6 °F /  7 °C 28.64in /  969.8hPa ESE 1.7mph /  2.7km/h 4mph /  6.4km/h 93% 0.02in /  0.51mm 0 W/m2
21:34 46.6 °F /  8.1 °C 44.6 °F /  7 °C 28.64in /  969.8hPa ESE 1.2mph /  1.9km/h 2mph /  3.2km/h 93% 0.02in /  0.51mm 0 W/m2
21:39 46.6 °F /  8.1 °C 44.6 °F /  7 °C 28.64in /  969.8hPa ESE 2mph /  3.2km/h 3mph /  4.8km/h 93% 0.02in /  0.51mm 0 W/m2
21:44 46.6 °F /  8.1 °C 44.6 °F /  7 °C 28.64in /  969.8hPa ESE 3.3mph /  5.3km/h 7mph /  11.3km/h 93% 0.02in /  0.51mm 0 W/m2
21:49 46.7 °F /  8.2 °C 44.7 °F /  7.1 °C 28.64in /  969.8hPa SE 2mph /  3.2km/h 4mph /  6.4km/h 93% 0.02in /  0.51mm 0 W/m2
21:54 46.6 °F /  8.1 °C 44.6 °F /  7 °C 28.64in /  969.8hPa South 0.5mph /  0.8km/h 3mph /  4.8km/h 93% 0.02in /  0.51mm 0 W/m2
21:59 46.6 °F /  8.1 °C 44.6 °F /  7 °C 28.64in /  969.8hPa South 0.4mph /  0.6km/h 2mph /  3.2km/h 93% 0.02in /  0.51mm 0 W/m2
22:04 46.7 °F /  8.2 °C 44.7 °F /  7.1 °C 28.64in /  969.8hPa South 0.7mph /  1.1km/h 2mph /  3.2km/h 93% 0.01in /  0.25mm 0 W/m2
22:09 46.6 °F /  8.1 °C 44.8 °F /  7.1 °C 28.64in /  969.8hPa South 0.6mph /  1km/h 2mph /  3.2km/h 93.4% 0.01in /  0.25mm 0 W/m2
22:14 46.6 °F /  8.1 °C 45 °F /  7.2 °C 28.65in /  970.1hPa SSE 0.4mph /  0.6km/h 3mph /  4.8km/h 94% 0.01in /  0.25mm 0 W/m2
22:19 46.6 °F /  8.1 °C 45 °F /  7.2 °C 28.65in /  970.1hPa SSE 0.8mph /  1.3km/h 2mph /  3.2km/h 94% 0.01in /  0.25mm 0 W/m2
22:24 46.8 °F /  8.2 °C 45.1 °F /  7.3 °C 28.65in /  970.1hPa South 0.2mph /  0.3km/h 1mph /  1.6km/h 94% 0.01in /  0.25mm 0 W/m2
22:29 46.6 °F /  8.1 °C 45 °F /  7.2 °C 28.65in /  970.1hPa South 0.4mph /  0.6km/h 1mph /  1.6km/h 94% 0.01in /  0.25mm 0 W/m2
22:34 46.6 °F /  8.1 °C 45 °F /  7.2 °C 28.65in /  970.1hPa South 0.7mph /  1.1km/h 1mph /  1.6km/h 94% 0.01in /  0.25mm 0 W/m2
22:39 46.6 °F /  8.1 °C 45 °F /  7.2 °C 28.66in /  970.4hPa South 0.4mph /  0.6km/h 1mph /  1.6km/h 94% 0.01in /  0.25mm 0 W/m2
22:44 46.6 °F /  8.1 °C 45 °F /  7.2 °C 28.66in /  970.4hPa South 1.2mph /  1.9km/h 2mph /  3.2km/h 94% 0.01in /  0.25mm 0 W/m2
22:49 46.6 °F /  8.1 °C 45 °F /  7.2 °C 28.66in /  970.4hPa West 0.8mph /  1.3km/h 3mph /  4.8km/h 94% 0.00in /  0mm 0 W/m2
22:54 46.7 °F /  8.2 °C 45 °F /  7.2 °C 28.66in /  970.4hPa WNW 1.4mph /  2.3km/h 3mph /  4.8km/h 94% 0.00in /  0mm 0 W/m2
22:59 46.8 °F /  8.2 °C 45.1 °F /  7.3 °C 28.67in /  970.8hPa WNW 1.5mph /  2.4km/h 3mph /  4.8km/h 94% 0.00in /  0mm 0 W/m2
23:04 46.8 °F /  8.2 °C 45.1 °F /  7.3 °C 28.67in /  970.8hPa WNW 0.5mph /  0.8km/h 2mph /  3.2km/h 94% 0.00in /  0mm 0 W/m2
23:09 46.8 °F /  8.2 °C 45.2 °F /  7.3 °C 28.67in /  970.8hPa SW 1mph /  1.6km/h 3mph /  4.8km/h 94% 0.00in /  0mm 0 W/m2
23:14 46.9 °F /  8.3 °C 45.3 °F /  7.4 °C 28.68in /  971.1hPa SW 0.2mph /  0.3km/h 2mph /  3.2km/h 94% 0.00in /  0mm 0 W/m2
23:19 46.9 °F /  8.3 °C 45.3 °F /  7.4 °C 28.68in /  971.1hPa SW 0.6mph /  1km/h 3mph /  4.8km/h 94% 0.00in /  0mm 0 W/m2
23:24 46.9 °F /  8.3 °C 45.3 °F /  7.4 °C 28.68in /  971.1hPa WSW 0.9mph /  1.4km/h 3mph /  4.8km/h 94% 0.00in /  0mm 0 W/m2
23:29 46.9 °F /  8.3 °C 45.3 °F /  7.4 °C 28.69in /  971.4hPa West 1.5mph /  2.4km/h 3mph /  4.8km/h 94% 0.00in /  0mm 0 W/m2
23:34 46.9 °F /  8.3 °C 45.3 °F /  7.4 °C 28.69in /  971.4hPa WNW 2mph /  3.2km/h 2mph /  3.2km/h 94% 0.00in /  0mm 0 W/m2
23:39 47.1 °F /  8.4 °C 45.5 °F /  7.5 °C 28.69in /  971.4hPa WNW 1.6mph /  2.6km/h 3mph /  4.8km/h 94% 0.00in /  0mm 0 W/m2
23:44 47.1 °F /  8.4 °C 45.5 °F /  7.5 °C 28.69in /  971.4hPa West 2.2mph /  3.5km/h 6mph /  9.7km/h 94% 0.00in /  0mm 0 W/m2
23:49 47.1 °F /  8.4 °C 45.5 °F /  7.5 °C 28.69in /  971.4hPa West 2.1mph /  3.4km/h 4mph /  6.4km/h 94% 0.00in /  0mm 0 W/m2
23:54 47.1 °F /  8.4 °C 45.5 °F /  7.5 °C 28.70in /  971.8hPa West 2mph /  3.2km/h 4mph /  6.4km/h 94% 0.00in /  0mm 0 W/m2
23:59 47.1 °F /  8.4 °C 45.5 °F /  7.5 °C 28.70in /  971.8hPa West 2.9mph /  4.7km/h 5mph /  8km/h 94% 0.00in /  0mm 0 W/m2
Bath Spa Weather
Compliments of Weather Underground - 2 mb